sensor_id;sensor_type;location;lat;lon;timestamp;P1;durP1;ratioP1;P2;durP2;ratioP2
51174;SDS011;37240;50.104;20.010;2022-12-05T00:00:09;76.60;;;29.15;;
51174;SDS011;37240;50.104;20.010;2022-12-05T00:05:10;70.35;;;26.17;;
51174;SDS011;37240;50.104;20.010;2022-12-05T00:10:11;64.63;;;26.67;;
51174;SDS011;37240;50.104;20.010;2022-12-05T00:15:12;74.60;;;27.88;;
51174;SDS011;37240;50.104;20.010;2022-12-05T00:20:12;76.43;;;27.45;;
51174;SDS011;37240;50.104;20.010;2022-12-05T00:25:13;75.65;;;27.90;;
51174;SDS011;37240;50.104;20.010;2022-12-05T00:30:13;74.25;;;28.55;;
51174;SDS011;37240;50.104;20.010;2022-12-05T00:35:14;82.50;;;31.45;;
51174;SDS011;37240;50.104;20.010;2022-12-05T00:40:14;85.85;;;29.60;;
51174;SDS011;37240;50.104;20.010;2022-12-05T00:45:15;83.72;;;30.48;;
51174;SDS011;37240;50.104;20.010;2022-12-05T00:50:15;76.80;;;29.30;;
51174;SDS011;37240;50.104;20.010;2022-12-05T00:55:16;84.10;;;30.92;;
51174;SDS011;37240;50.104;20.010;2022-12-05T01:00:16;80.72;;;29.02;;
51174;SDS011;37240;50.104;20.010;2022-12-05T01:05:17;70.40;;;28.98;;
51174;SDS011;37240;50.104;20.010;2022-12-05T01:10:18;82.82;;;30.17;;
51174;SDS011;37240;50.104;20.010;2022-12-05T01:15:18;80.97;;;29.23;;
51174;SDS011;37240;50.104;20.010;2022-12-05T01:20:19;83.60;;;31.02;;
51174;SDS011;37240;50.104;20.010;2022-12-05T01:25:19;81.90;;;29.73;;
51174;SDS011;37240;50.104;20.010;2022-12-05T01:30:20;79.85;;;30.65;;
51174;SDS011;37240;50.104;20.010;2022-12-05T01:35:20;86.10;;;30.63;;
51174;SDS011;37240;50.104;20.010;2022-12-05T01:40:21;81.43;;;31.17;;
51174;SDS011;37240;50.104;20.010;2022-12-05T01:45:35;85.03;;;32.17;;
51174;SDS011;37240;50.104;20.010;2022-12-05T01:50:38;90.15;;;32.53;;
51174;SDS011;37240;50.104;20.010;2022-12-05T01:55:39;79.68;;;29.58;;
51174;SDS011;37240;50.104;20.010;2022-12-05T02:00:39;89.47;;;30.55;;
51174;SDS011;37240;50.104;20.010;2022-12-05T02:05:40;75.75;;;28.20;;
51174;SDS011;37240;50.104;20.010;2022-12-05T02:10:50;87.05;;;33.33;;
51174;SDS011;37240;50.104;20.010;2022-12-05T02:16:01;84.63;;;32.38;;
51174;SDS011;37240;50.104;20.010;2022-12-05T02:21:08;79.72;;;29.83;;
51174;SDS011;37240;50.104;20.010;2022-12-05T02:32:39;79.35;;;30.60;;
51174;SDS011;37240;50.104;20.010;2022-12-05T02:37:53;84.75;;;28.63;;
51174;SDS011;37240;50.104;20.010;2022-12-05T02:43:21;83.63;;;26.92;;
51174;SDS011;37240;50.104;20.010;2022-12-05T02:48:33;88.07;;;30.85;;
51174;SDS011;37240;50.104;20.010;2022-12-05T02:53:35;78.55;;;28.23;;
51174;SDS011;37240;50.104;20.010;2022-12-05T02:58:40;75.40;;;27.92;;
51174;SDS011;37240;50.104;20.010;2022-12-05T03:03:47;65.10;;;25.70;;
51174;SDS011;37240;50.104;20.010;2022-12-05T03:09:32;75.93;;;28.67;;
51174;SDS011;37240;50.104;20.010;2022-12-05T03:14:28;78.88;;;28.52;;
51174;SDS011;37240;50.104;20.010;2022-12-05T03:19:36;75.35;;;28.95;;
51174;SDS011;37240;50.104;20.010;2022-12-05T03:24:44;80.80;;;29.25;;
51174;SDS011;37240;50.104;20.010;2022-12-05T03:29:52;75.82;;;26.42;;
51174;SDS011;37240;50.104;20.010;2022-12-05T03:35:00;81.43;;;28.63;;
51174;SDS011;37240;50.104;20.010;2022-12-05T03:40:17;73.78;;;26.40;;
51174;SDS011;37240;50.104;20.010;2022-12-05T03:45:27;69.30;;;26.75;;
51174;SDS011;37240;50.104;20.010;2022-12-05T03:50:37;74.18;;;26.40;;
51174;SDS011;37240;50.104;20.010;2022-12-05T03:55:43;70.50;;;26.40;;
51174;SDS011;37240;50.104;20.010;2022-12-05T04:00:48;80.50;;;30.48;;
51174;SDS011;37240;50.104;20.010;2022-12-05T04:05:55;75.75;;;29.30;;
51174;SDS011;37240;50.104;20.010;2022-12-05T04:11:04;62.22;;;24.67;;
51174;SDS011;37240;50.104;20.010;2022-12-05T04:16:16;64.20;;;24.30;;
51174;SDS011;37240;50.104;20.010;2022-12-05T04:21:30;69.28;;;23.90;;
51174;SDS011;37240;50.104;20.010;2022-12-05T04:26:37;62.95;;;24.42;;
51174;SDS011;37240;50.104;20.010;2022-12-05T04:31:46;63.10;;;24.98;;
51174;SDS011;37240;50.104;20.010;2022-12-05T04:36:50;60.60;;;23.77;;
51174;SDS011;37240;50.104;20.010;2022-12-05T04:42:08;65.15;;;24.85;;
51174;SDS011;37240;50.104;20.010;2022-12-05T04:47:13;61.42;;;24.20;;
51174;SDS011;37240;50.104;20.010;2022-12-05T04:52:17;71.95;;;24.42;;
51174;SDS011;37240;50.104;20.010;2022-12-05T04:57:23;66.57;;;24.20;;
51174;SDS011;37240;50.104;20.010;2022-12-05T05:02:29;61.22;;;23.15;;
51174;SDS011;37240;50.104;20.010;2022-12-05T05:07:43;59.58;;;23.23;;
51174;SDS011;37240;50.104;20.010;2022-12-05T05:12:45;60.17;;;24.00;;
51174;SDS011;37240;50.104;20.010;2022-12-05T05:17:46;62.05;;;24.10;;
51174;SDS011;37240;50.104;20.010;2022-12-05T05:22:47;57.72;;;24.02;;
51174;SDS011;37240;50.104;20.010;2022-12-05T05:27:51;63.22;;;25.13;;
51174;SDS011;37240;50.104;20.010;2022-12-05T05:32:53;67.45;;;26.25;;
51174;SDS011;37240;50.104;20.010;2022-12-05T05:37:53;58.92;;;22.73;;
51174;SDS011;37240;50.104;20.010;2022-12-05T05:42:54;62.40;;;23.70;;
51174;SDS011;37240;50.104;20.010;2022-12-05T05:47:54;63.72;;;24.48;;
51174;SDS011;37240;50.104;20.010;2022-12-05T05:52:55;55.00;;;23.77;;
51174;SDS011;37240;50.104;20.010;2022-12-05T05:57:55;60.58;;;24.45;;
51174;SDS011;37240;50.104;20.010;2022-12-05T06:02:56;65.28;;;25.58;;
51174;SDS011;37240;50.104;20.010;2022-12-05T06:07:56;59.00;;;24.48;;
51174;SDS011;37240;50.104;20.010;2022-12-05T06:12:58;68.43;;;23.90;;
51174;SDS011;37240;50.104;20.010;2022-12-05T06:17:59;70.60;;;25.55;;
51174;SDS011;37240;50.104;20.010;2022-12-05T06:22:59;69.80;;;26.65;;
51174;SDS011;37240;50.104;20.010;2022-12-05T06:28:00;76.22;;;28.33;;
51174;SDS011;37240;50.104;20.010;2022-12-05T06:33:00;66.00;;;25.70;;
51174;SDS011;37240;50.104;20.010;2022-12-05T06:38:01;65.07;;;27.08;;
51174;SDS011;37240;50.104;20.010;2022-12-05T06:43:01;62.10;;;26.15;;
51174;SDS011;37240;50.104;20.010;2022-12-05T06:48:02;70.35;;;27.15;;
51174;SDS011;37240;50.104;20.010;2022-12-05T06:53:03;72.32;;;26.10;;
51174;SDS011;37240;50.104;20.010;2022-12-05T06:58:03;70.85;;;27.55;;
51174;SDS011;37240;50.104;20.010;2022-12-05T07:03:04;70.55;;;26.20;;
51174;SDS011;37240;50.104;20.010;2022-12-05T07:08:04;64.85;;;23.65;;
51174;SDS011;37240;50.104;20.010;2022-12-05T07:13:05;68.60;;;26.35;;
51174;SDS011;37240;50.104;20.010;2022-12-05T07:18:05;71.28;;;24.52;;
51174;SDS011;37240;50.104;20.010;2022-12-05T07:23:06;59.42;;;21.98;;
51174;SDS011;37240;50.104;20.010;2022-12-05T07:28:06;60.42;;;22.23;;
51174;SDS011;37240;50.104;20.010;2022-12-05T07:33:07;60.45;;;21.50;;
51174;SDS011;37240;50.104;20.010;2022-12-05T07:38:08;60.50;;;23.70;;
51174;SDS011;37240;50.104;20.010;2022-12-05T07:43:08;66.75;;;24.98;;
51174;SDS011;37240;50.104;20.010;2022-12-05T07:48:08;59.92;;;22.65;;
51174;SDS011;37240;50.104;20.010;2022-12-05T07:53:09;60.63;;;23.67;;
51174;SDS011;37240;50.104;20.010;2022-12-05T07:58:09;59.42;;;21.63;;
51174;SDS011;37240;50.104;20.010;2022-12-05T08:03:10;63.67;;;24.20;;
51174;SDS011;37240;50.104;20.010;2022-12-05T08:08:10;57.17;;;20.35;;
51174;SDS011;37240;50.104;20.010;2022-12-05T08:13:11;55.20;;;20.90;;
51174;SDS011;37240;50.104;20.010;2022-12-05T08:18:12;54.80;;;21.80;;
51174;SDS011;37240;50.104;20.010;2022-12-05T08:23:12;60.60;;;23.80;;
51174;SDS011;37240;50.104;20.010;2022-12-05T08:28:13;58.03;;;21.15;;
51174;SDS011;37240;50.104;20.010;2022-12-05T08:33:13;53.75;;;22.00;;
51174;SDS011;37240;50.104;20.010;2022-12-05T08:38:13;55.72;;;21.58;;
51174;SDS011;37240;50.104;20.010;2022-12-05T08:43:14;50.97;;;20.98;;
51174;SDS011;37240;50.104;20.010;2022-12-05T08:48:14;48.17;;;20.67;;
51174;SDS011;37240;50.104;20.010;2022-12-05T08:53:15;60.00;;;22.40;;
51174;SDS011;37240;50.104;20.010;2022-12-05T08:58:16;54.65;;;22.17;;
51174;SDS011;37240;50.104;20.010;2022-12-05T09:03:16;55.03;;;22.52;;
51174;SDS011;37240;50.104;20.010;2022-12-05T09:08:17;56.40;;;22.30;;
51174;SDS011;37240;50.104;20.010;2022-12-05T09:13:17;51.83;;;21.50;;
51174;SDS011;37240;50.104;20.010;2022-12-05T09:18:18;59.55;;;23.10;;
51174;SDS011;37240;50.104;20.010;2022-12-05T09:23:18;50.40;;;21.15;;
51174;SDS011;37240;50.104;20.010;2022-12-05T09:28:19;61.47;;;24.63;;
51174;SDS011;37240;50.104;20.010;2022-12-05T09:33:19;56.35;;;23.98;;
51174;SDS011;37240;50.104;20.010;2022-12-05T09:38:20;55.97;;;24.65;;
51174;SDS011;37240;50.104;20.010;2022-12-05T09:43:25;51.88;;;24.08;;
51174;SDS011;37240;50.104;20.010;2022-12-05T09:48:42;61.25;;;24.92;;
51174;SDS011;37240;50.104;20.010;2022-12-05T09:53:43;67.03;;;29.38;;
51174;SDS011;37240;50.104;20.010;2022-12-05T09:58:45;72.13;;;28.65;;
51174;SDS011;37240;50.104;20.010;2022-12-05T10:03:52;65.28;;;28.88;;
51174;SDS011;37240;50.104;20.010;2022-12-05T10:14:35;71.68;;;31.63;;
51174;SDS011;37240;50.104;20.010;2022-12-05T10:19:48;81.33;;;30.03;;
51174;SDS011;37240;50.104;20.010;2022-12-05T10:24:52;82.80;;;32.95;;
51174;SDS011;37240;50.104;20.010;2022-12-05T10:30:00;70.07;;;31.02;;
51174;SDS011;37240;50.104;20.010;2022-12-05T10:35:16;65.28;;;28.92;;
51174;SDS011;37240;50.104;20.010;2022-12-05T10:40:21;57.03;;;28.08;;
51174;SDS011;37240;50.104;20.010;2022-12-05T10:45:24;60.17;;;27.00;;
51174;SDS011;37240;50.104;20.010;2022-12-05T10:50:28;58.15;;;26.52;;
51174;SDS011;37240;50.104;20.010;2022-12-05T11:00:46;47.38;;;21.73;;
51174;SDS011;37240;50.104;20.010;2022-12-05T11:05:49;56.55;;;25.33;;
51174;SDS011;37240;50.104;20.010;2022-12-05T11:10:57;50.45;;;22.60;;
51174;SDS011;37240;50.104;20.010;2022-12-05T11:16:00;43.72;;;21.33;;
51174;SDS011;37240;50.104;20.010;2022-12-05T11:21:08;43.22;;;21.25;;
51174;SDS011;37240;50.104;20.010;2022-12-05T11:26:17;47.42;;;21.98;;
51174;SDS011;37240;50.104;20.010;2022-12-05T11:31:38;48.13;;;21.73;;
51174;SDS011;37240;50.104;20.010;2022-12-05T11:36:40;49.58;;;22.83;;
51174;SDS011;37240;50.104;20.010;2022-12-05T11:41:55;48.47;;;22.30;;
51174;SDS011;37240;50.104;20.010;2022-12-05T11:47:15;46.30;;;21.23;;
51174;SDS011;37240;50.104;20.010;2022-12-05T12:14:29;41.00;;;21.15;;
51174;SDS011;37240;50.104;20.010;2022-12-05T12:30:27;41.80;;;19.27;;
51174;SDS011;37240;50.104;20.010;2022-12-05T12:52:20;52.05;;;20.38;;
51174;SDS011;37240;50.104;20.010;2022-12-05T13:02:46;50.08;;;20.92;;
51174;SDS011;37240;50.104;20.010;2022-12-05T13:07:57;42.10;;;20.38;;
51174;SDS011;37240;50.104;20.010;2022-12-05T13:13:22;42.08;;;19.63;;
51174;SDS011;37240;50.104;20.010;2022-12-05T13:18:27;48.72;;;22.77;;
51174;SDS011;37240;50.104;20.010;2022-12-05T13:23:29;42.50;;;20.70;;
51174;SDS011;37240;50.104;20.010;2022-12-05T13:28:39;52.80;;;21.63;;
51174;SDS011;37240;50.104;20.010;2022-12-05T13:33:49;51.50;;;23.33;;
51174;SDS011;37240;50.104;20.010;2022-12-05T13:38:58;47.25;;;21.00;;
51174;SDS011;37240;50.104;20.010;2022-12-05T13:44:24;51.55;;;21.80;;
51174;SDS011;37240;50.104;20.010;2022-12-05T13:49:31;46.00;;;19.75;;
51174;SDS011;37240;50.104;20.010;2022-12-05T13:54:41;53.75;;;22.33;;
51174;SDS011;37240;50.104;20.010;2022-12-05T13:59:59;45.10;;;20.33;;
51174;SDS011;37240;50.104;20.010;2022-12-05T14:05:00;47.33;;;21.27;;
51174;SDS011;37240;50.104;20.010;2022-12-05T14:10:00;47.20;;;20.85;;
51174;SDS011;37240;50.104;20.010;2022-12-05T14:15:01;45.17;;;21.35;;
51174;SDS011;37240;50.104;20.010;2022-12-05T14:30:28;58.35;;;24.83;;
51174;SDS011;37240;50.104;20.010;2022-12-05T14:35:40;55.90;;;24.60;;
51174;SDS011;37240;50.104;20.010;2022-12-05T14:40:44;57.67;;;25.00;;
51174;SDS011;37240;50.104;20.010;2022-12-05T14:50:51;61.08;;;27.30;;
51174;SDS011;37240;50.104;20.010;2022-12-05T14:56:00;56.47;;;24.55;;
51174;SDS011;37240;50.104;20.010;2022-12-05T15:06:20;73.63;;;29.15;;
51174;SDS011;37240;50.104;20.010;2022-12-05T15:11:22;60.10;;;26.83;;
51174;SDS011;37240;50.104;20.010;2022-12-05T15:16:24;56.35;;;24.33;;
51174;SDS011;37240;50.104;20.010;2022-12-05T15:26:39;60.95;;;24.48;;
51174;SDS011;37240;50.104;20.010;2022-12-05T15:32:03;60.83;;;24.30;;
51174;SDS011;37240;50.104;20.010;2022-12-05T15:42:08;65.40;;;26.95;;
51174;SDS011;37240;50.104;20.010;2022-12-05T15:47:21;59.97;;;25.83;;
51174;SDS011;37240;50.104;20.010;2022-12-05T15:52:28;65.72;;;28.05;;
51174;SDS011;37240;50.104;20.010;2022-12-05T15:57:45;67.53;;;28.38;;
51174;SDS011;37240;50.104;20.010;2022-12-05T16:08:21;64.05;;;28.08;;
51174;SDS011;37240;50.104;20.010;2022-12-05T16:13:22;82.53;;;35.97;;
51174;SDS011;37240;50.104;20.010;2022-12-05T16:18:28;112.47;;;45.40;;
51174;SDS011;37240;50.104;20.010;2022-12-05T16:23:33;81.75;;;35.22;;
51174;SDS011;37240;50.104;20.010;2022-12-05T16:28:34;77.80;;;34.65;;
51174;SDS011;37240;50.104;20.010;2022-12-05T16:33:35;76.70;;;30.65;;
51174;SDS011;37240;50.104;20.010;2022-12-05T16:38:35;67.50;;;28.95;;
51174;SDS011;37240;50.104;20.010;2022-12-05T16:48:37;112.72;;;44.70;;
51174;SDS011;37240;50.104;20.010;2022-12-05T16:53:40;106.13;;;44.67;;
51174;SDS011;37240;50.104;20.010;2022-12-05T16:58:48;88.88;;;36.38;;
51174;SDS011;37240;50.104;20.010;2022-12-05T17:03:48;83.60;;;35.03;;
51174;SDS011;37240;50.104;20.010;2022-12-05T17:08:49;80.85;;;33.92;;
51174;SDS011;37240;50.104;20.010;2022-12-05T17:13:51;82.80;;;31.92;;
51174;SDS011;37240;50.104;20.010;2022-12-05T17:18:53;76.90;;;33.33;;
51174;SDS011;37240;50.104;20.010;2022-12-05T17:23:54;86.88;;;34.65;;
51174;SDS011;37240;50.104;20.010;2022-12-05T17:28:55;81.88;;;31.88;;
51174;SDS011;37240;50.104;20.010;2022-12-05T17:33:55;73.75;;;32.50;;
51174;SDS011;37240;50.104;20.010;2022-12-05T17:38:56;77.38;;;34.28;;
51174;SDS011;37240;50.104;20.010;2022-12-05T17:43:56;73.63;;;33.42;;
51174;SDS011;37240;50.104;20.010;2022-12-05T17:48:57;76.30;;;34.70;;
51174;SDS011;37240;50.104;20.010;2022-12-05T17:53:57;81.68;;;33.45;;
51174;SDS011;37240;50.104;20.010;2022-12-05T17:58:58;75.45;;;32.25;;
51174;SDS011;37240;50.104;20.010;2022-12-05T18:03:58;81.82;;;33.40;;
51174;SDS011;37240;50.104;20.010;2022-12-05T18:08:59;79.88;;;33.00;;
51174;SDS011;37240;50.104;20.010;2022-12-05T18:13:59;69.15;;;31.10;;
51174;SDS011;37240;50.104;20.010;2022-12-05T18:19:00;79.45;;;31.85;;
51174;SDS011;37240;50.104;20.010;2022-12-05T18:24:00;78.78;;;34.08;;
51174;SDS011;37240;50.104;20.010;2022-12-05T18:29:01;75.50;;;32.58;;
51174;SDS011;37240;50.104;20.010;2022-12-05T18:34:01;72.97;;;32.20;;
51174;SDS011;37240;50.104;20.010;2022-12-05T18:39:02;81.00;;;33.42;;
51174;SDS011;37240;50.104;20.010;2022-12-05T18:44:02;79.40;;;34.03;;
51174;SDS011;37240;50.104;20.010;2022-12-05T18:49:03;68.00;;;31.75;;
51174;SDS011;37240;50.104;20.010;2022-12-05T18:54:04;76.95;;;33.25;;
51174;SDS011;37240;50.104;20.010;2022-12-05T18:59:06;86.28;;;38.15;;
51174;SDS011;37240;50.104;20.010;2022-12-05T19:04:10;89.30;;;37.63;;
51174;SDS011;37240;50.104;20.010;2022-12-05T19:09:13;84.20;;;36.10;;
51174;SDS011;37240;50.104;20.010;2022-12-05T19:14:16;81.57;;;35.88;;
51174;SDS011;37240;50.104;20.010;2022-12-05T19:19:17;84.00;;;36.90;;
51174;SDS011;37240;50.104;20.010;2022-12-05T19:24:18;85.05;;;37.45;;
51174;SDS011;37240;50.104;20.010;2022-12-05T19:29:18;87.15;;;38.63;;
51174;SDS011;37240;50.104;20.010;2022-12-05T19:34:19;86.70;;;37.78;;
51174;SDS011;37240;50.104;20.010;2022-12-05T19:39:20;86.70;;;38.67;;
51174;SDS011;37240;50.104;20.010;2022-12-05T19:44:22;94.68;;;38.95;;
51174;SDS011;37240;50.104;20.010;2022-12-05T19:49:23;92.95;;;39.55;;
51174;SDS011;37240;50.104;20.010;2022-12-05T19:54:23;100.63;;;41.47;;
51174;SDS011;37240;50.104;20.010;2022-12-05T19:59:24;103.43;;;41.45;;
51174;SDS011;37240;50.104;20.010;2022-12-05T20:04:24;101.35;;;43.65;;
51174;SDS011;37240;50.104;20.010;2022-12-05T20:09:25;112.50;;;45.03;;
51174;SDS011;37240;50.104;20.010;2022-12-05T20:14:25;101.97;;;44.15;;
51174;SDS011;37240;50.104;20.010;2022-12-05T20:19:26;109.50;;;48.17;;
51174;SDS011;37240;50.104;20.010;2022-12-05T20:24:26;111.30;;;44.88;;
51174;SDS011;37240;50.104;20.010;2022-12-05T20:29:27;102.22;;;45.03;;
51174;SDS011;37240;50.104;20.010;2022-12-05T20:34:27;104.35;;;45.10;;
51174;SDS011;37240;50.104;20.010;2022-12-05T20:39:28;97.60;;;43.97;;
51174;SDS011;37240;50.104;20.010;2022-12-05T20:44:28;108.22;;;44.97;;
51174;SDS011;37240;50.104;20.010;2022-12-05T20:49:29;105.25;;;45.65;;
51174;SDS011;37240;50.104;20.010;2022-12-05T20:54:29;111.78;;;45.22;;
51174;SDS011;37240;50.104;20.010;2022-12-05T20:59:30;108.43;;;46.00;;
51174;SDS011;37240;50.104;20.010;2022-12-05T21:04:30;108.70;;;46.92;;
51174;SDS011;37240;50.104;20.010;2022-12-05T21:09:31;107.00;;;45.67;;
51174;SDS011;37240;50.104;20.010;2022-12-05T21:14:31;111.68;;;48.80;;
51174;SDS011;37240;50.104;20.010;2022-12-05T21:19:32;119.57;;;48.95;;
51174;SDS011;37240;50.104;20.010;2022-12-05T21:24:32;127.78;;;53.72;;
51174;SDS011;37240;50.104;20.010;2022-12-05T21:29:33;124.60;;;53.90;;
51174;SDS011;37240;50.104;20.010;2022-12-05T21:34:33;117.53;;;49.92;;
51174;SDS011;37240;50.104;20.010;2022-12-05T21:39:34;113.30;;;48.67;;
51174;SDS011;37240;50.104;20.010;2022-12-05T21:44:35;115.45;;;50.30;;
51174;SDS011;37240;50.104;20.010;2022-12-05T21:49:35;119.93;;;51.00;;
51174;SDS011;37240;50.104;20.010;2022-12-05T21:54:36;110.15;;;48.90;;
51174;SDS011;37240;50.104;20.010;2022-12-05T21:59:36;110.28;;;47.97;;
51174;SDS011;37240;50.104;20.010;2022-12-05T22:04:37;109.20;;;50.00;;
51174;SDS011;37240;50.104;20.010;2022-12-05T22:09:37;113.55;;;49.20;;
51174;SDS011;37240;50.104;20.010;2022-12-05T22:14:38;108.18;;;48.28;;
51174;SDS011;37240;50.104;20.010;2022-12-05T22:19:38;118.18;;;50.00;;
51174;SDS011;37240;50.104;20.010;2022-12-05T22:24:39;114.63;;;48.35;;
51174;SDS011;37240;50.104;20.010;2022-12-05T22:29:39;110.43;;;49.30;;
51174;SDS011;37240;50.104;20.010;2022-12-05T22:34:40;110.72;;;49.55;;
51174;SDS011;37240;50.104;20.010;2022-12-05T22:39:40;121.03;;;51.17;;
51174;SDS011;37240;50.104;20.010;2022-12-05T22:44:41;125.82;;;51.95;;
51174;SDS011;37240;50.104;20.010;2022-12-05T22:49:41;123.00;;;52.33;;
51174;SDS011;37240;50.104;20.010;2022-12-05T22:54:42;127.13;;;50.75;;
51174;SDS011;37240;50.104;20.010;2022-12-05T22:59:42;119.93;;;50.05;;
51174;SDS011;37240;50.104;20.010;2022-12-05T23:04:42;111.28;;;48.65;;
51174;SDS011;37240;50.104;20.010;2022-12-05T23:09:43;125.53;;;52.75;;
51174;SDS011;37240;50.104;20.010;2022-12-05T23:14:43;124.03;;;55.05;;
51174;SDS011;37240;50.104;20.010;2022-12-05T23:19:44;146.93;;;59.35;;
51174;SDS011;37240;50.104;20.010;2022-12-05T23:24:44;136.98;;;54.95;;
51174;SDS011;37240;50.104;20.010;2022-12-05T23:29:45;122.25;;;54.70;;
51174;SDS011;37240;50.104;20.010;2022-12-05T23:34:45;124.30;;;54.90;;
51174;SDS011;37240;50.104;20.010;2022-12-05T23:39:46;129.93;;;55.38;;
51174;SDS011;37240;50.104;20.010;2022-12-05T23:44:46;125.82;;;54.72;;
51174;SDS011;37240;50.104;20.010;2022-12-05T23:49:47;120.25;;;53.47;;
51174;SDS011;37240;50.104;20.010;2022-12-05T23:54:47;122.00;;;54.45;;
51174;SDS011;37240;50.104;20.010;2022-12-05T23:59:48;123.55;;;53.72;;
